This is the latest recevied weather packets stored in our database for station/object NU3S-7. If no packets are shown the sender has not sent any weather packets the latest 1 day(s).
| Time | Temp. | Humidity | Pressure | Rain* | Wind** | Luminosity | Snow |
|---|---|---|---|---|---|---|---|
| 1836274328 | 20.56° C | 89% | 1018.8 hPa | 0 mm | 0 m/s | - | - |
| 1778050646 | 13.89° C | 100% | 1006.6 hPa | 2.03 mm | 0 m/s | - | - |
| 1778049443 | 13.89° C | 99% | 1006.9 hPa | 1.78 mm | 0.45 m/s, 238° | - | - |
| 1778048841 | 13.89° C | 99% | 1007 hPa | 1.52 mm | 0.45 m/s, 245° | - | - |
| 1778048240 | 13.89° C | 99% | 1007 hPa | 1.27 mm | 0 m/s | - | - |
| 1778047669 | 13.89° C | 99% | 1007.3 hPa | 1.27 mm | 0.45 m/s, 173° | - | - |
| 1778047638 | 13.89° C | 99% | 1007.3 hPa | 1.27 mm | 0.45 m/s, 173° | - | - |
| 1778047037 | 13.89° C | 98% | 1007.4 hPa | 1.02 mm | 0 m/s | - | - |
| 1778046437 | 13.89° C | 97% | 1007.5 hPa | 1.02 mm | 0 m/s | - | - |
| 1778045836 | 14.44° C | 97% | 1007.6 hPa | 0.76 mm | 0 m/s | - | - |
| 1778045235 | 14.44° C | 96% | 1007.7 hPa | 0.76 mm | 0 m/s | - | - |
| 1778044779 | 15° C | 95% | 1007.9 hPa | 0.76 mm | 0 m/s | - | - |
| 1778044635 | 15° C | 95% | 1007.9 hPa | 0.76 mm | 0 m/s | - | - |
| 1778044033 | 15.56° C | 93% | 1008.1 hPa | 0.51 mm | 1.34 m/s, 287° | - | - |
| 1778043433 | 15.56° C | 90% | 1008.1 hPa | 0.25 mm | 1.34 m/s, 269° | - | - |
| 1778042868 | 16.67° C | 86% | 1008.2 hPa | 0 mm | 2.24 m/s, 297° | - | - |
| 1778042832 | 16.67° C | 86% | 1008.2 hPa | 0 mm | 2.24 m/s, 297° | - | - |
| 1778042229 | 17.22° C | 82% | 1008.2 hPa | 0 mm | 3.13 m/s, 236° | - | - |
| 1778041629 | 18.33° C | 76% | 1008.1 hPa | 0 mm | 3.13 m/s, 243° | - | - |
| 1778040426 | 19.44° C | 69% | 1007.5 hPa | 0 mm | 1.79 m/s, 293° | - | - |
| 1778039825 | 19.44° C | 69% | 1007.3 hPa | 0.51 mm | 0.89 m/s, 210° | - | - |
| 1778039225 | 19.44° C | 70% | 1007.2 hPa | 0.51 mm | 0.45 m/s, 236° | - | - |
| 1778038623 | 19.44° C | 70% | 1007.2 hPa | 0.51 mm | 0.89 m/s, 218° | - | - |
| 1778036820 | 19.44° C | 70% | 1007.2 hPa | 0.51 mm | 0 m/s | - | - |
| 1778036219 | 19.44° C | 69% | 1007.2 hPa | 0.51 mm | 0 m/s | - | - |
* Rain since midnight (hover to see other rain measurements)
** Current wind speed in m/s (hover to see current wind gust speed)